sensor_id;sensor_type;location;lat;lon;timestamp;P1;durP1;ratioP1;P2;durP2;ratioP2
54037;SDS011;39954;48.844;9.726;2024-01-16T00:01:04;162.40;;;43.30;;
54037;SDS011;39954;48.844;9.726;2024-01-16T00:02:07;164.57;;;47.25;;
54037;SDS011;39954;48.844;9.726;2024-01-16T00:03:11;205.63;;;50.78;;
54037;SDS011;39954;48.844;9.726;2024-01-16T00:04:16;157.23;;;49.97;;
54037;SDS011;39954;48.844;9.726;2024-01-16T00:05:18;201.73;;;51.28;;
54037;SDS011;39954;48.844;9.726;2024-01-16T00:06:23;180.98;;;69.72;;
54037;SDS011;39954;48.844;9.726;2024-01-16T00:07:25;164.57;;;106.20;;
54037;SDS011;39954;48.844;9.726;2024-01-16T00:08:27;265.58;;;114.55;;
54037;SDS011;39954;48.844;9.726;2024-01-16T00:09:32;205.95;;;108.88;;
54037;SDS011;39954;48.844;9.726;2024-01-16T00:10:35;254.65;;;121.28;;
54037;SDS011;39954;48.844;9.726;2024-01-16T00:11:40;286.77;;;122.13;;
54037;SDS011;39954;48.844;9.726;2024-01-16T00:12:43;278.60;;;117.93;;
54037;SDS011;39954;48.844;9.726;2024-01-16T00:13:48;259.15;;;117.60;;
54037;SDS011;39954;48.844;9.726;2024-01-16T00:14:50;328.60;;;122.35;;
54037;SDS011;39954;48.844;9.726;2024-01-16T00:15:58;270.23;;;112.97;;
54037;SDS011;39954;48.844;9.726;2024-01-16T00:17:01;355.80;;;129.80;;
54037;SDS011;39954;48.844;9.726;2024-01-16T00:18:06;237.18;;;110.28;;
54037;SDS011;39954;48.844;9.726;2024-01-16T00:19:10;332.63;;;121.70;;
54037;SDS011;39954;48.844;9.726;2024-01-16T00:20:15;198.40;;;112.30;;
54037;SDS011;39954;48.844;9.726;2024-01-16T00:21:17;222.43;;;108.65;;
54037;SDS011;39954;48.844;9.726;2024-01-16T00:22:22;244.35;;;106.30;;
54037;SDS011;39954;48.844;9.726;2024-01-16T00:23:25;205.23;;;104.40;;
54037;SDS011;39954;48.844;9.726;2024-01-16T00:24:30;234.70;;;107.65;;
54037;SDS011;39954;48.844;9.726;2024-01-16T00:25:32;212.68;;;109.22;;
54037;SDS011;39954;48.844;9.726;2024-01-16T00:26:37;300.73;;;113.53;;
54037;SDS011;39954;48.844;9.726;2024-01-16T00:27:39;271.45;;;112.53;;
54037;SDS011;39954;48.844;9.726;2024-01-16T00:28:44;199.60;;;99.82;;
54037;SDS011;39954;48.844;9.726;2024-01-16T00:29:46;293.90;;;108.20;;
54037;SDS011;39954;48.844;9.726;2024-01-16T00:30:51;294.70;;;111.60;;
54037;SDS011;39954;48.844;9.726;2024-01-16T00:31:58;217.05;;;99.53;;
54037;SDS011;39954;48.844;9.726;2024-01-16T00:33:03;235.98;;;103.15;;
54037;SDS011;39954;48.844;9.726;2024-01-16T00:34:06;270.85;;;102.78;;
54037;SDS011;39954;48.844;9.726;2024-01-16T00:35:11;197.85;;;98.50;;
54037;SDS011;39954;48.844;9.726;2024-01-16T00:36:13;332.02;;;106.32;;
54037;SDS011;39954;48.844;9.726;2024-01-16T00:37:18;195.80;;;100.00;;
54037;SDS011;39954;48.844;9.726;2024-01-16T00:38:20;179.40;;;80.47;;
54037;SDS011;39954;48.844;9.726;2024-01-16T00:39:26;307.45;;;89.90;;
54037;SDS011;39954;48.844;9.726;2024-01-16T00:40:28;191.90;;;86.90;;
54037;SDS011;39954;48.844;9.726;2024-01-16T00:41:33;206.07;;;65.47;;
54037;SDS011;39954;48.844;9.726;2024-01-16T00:42:35;215.82;;;59.38;;
54037;SDS011;39954;48.844;9.726;2024-01-16T00:43:37;142.63;;;38.97;;
54037;SDS011;39954;48.844;9.726;2024-01-16T00:44:42;182.90;;;34.25;;
54037;SDS011;39954;48.844;9.726;2024-01-16T00:45:45;206.68;;;39.67;;
54037;SDS011;39954;48.844;9.726;2024-01-16T00:46:52;247.25;;;41.55;;
54037;SDS011;39954;48.844;9.726;2024-01-16T00:47:57;254.25;;;36.05;;
54037;SDS011;39954;48.844;9.726;2024-01-16T00:49:02;255.30;;;30.73;;
54037;SDS011;39954;48.844;9.726;2024-01-16T00:50:05;204.48;;;25.85;;
54037;SDS011;39954;48.844;9.726;2024-01-16T00:51:08;218.50;;;27.33;;
54037;SDS011;39954;48.844;9.726;2024-01-16T00:52:13;190.95;;;25.00;;
54037;SDS011;39954;48.844;9.726;2024-01-16T00:53:15;211.52;;;26.27;;
54037;SDS011;39954;48.844;9.726;2024-01-16T00:54:20;171.85;;;22.80;;
54037;SDS011;39954;48.844;9.726;2024-01-16T00:55:24;204.13;;;24.83;;
54037;SDS011;39954;48.844;9.726;2024-01-16T00:56:29;204.50;;;23.67;;
54037;SDS011;39954;48.844;9.726;2024-01-16T00:57:34;175.98;;;22.83;;
54037;SDS011;39954;48.844;9.726;2024-01-16T00:58:41;171.48;;;20.83;;
54037;SDS011;39954;48.844;9.726;2024-01-16T00:59:43;188.40;;;21.90;;
54037;SDS011;39954;48.844;9.726;2024-01-16T01:00:48;179.38;;;21.63;;
54037;SDS011;39954;48.844;9.726;2024-01-16T01:01:51;197.95;;;23.23;;
54037;SDS011;39954;48.844;9.726;2024-01-16T01:02:59;222.10;;;24.45;;
54037;SDS011;39954;48.844;9.726;2024-01-16T01:04:02;185.65;;;22.00;;
54037;SDS011;39954;48.844;9.726;2024-01-16T01:05:07;125.95;;;18.27;;
54037;SDS011;39954;48.844;9.726;2024-01-16T01:06:10;148.18;;;18.77;;
54037;SDS011;39954;48.844;9.726;2024-01-16T01:07:15;135.63;;;19.27;;
54037;SDS011;39954;48.844;9.726;2024-01-16T01:08:18;405.75;;;37.25;;
54037;SDS011;39954;48.844;9.726;2024-01-16T01:09:23;132.60;;;18.48;;
54037;SDS011;39954;48.844;9.726;2024-01-16T01:10:25;252.48;;;26.33;;
54037;SDS011;39954;48.844;9.726;2024-01-16T01:11:30;142.77;;;20.33;;
54037;SDS011;39954;48.844;9.726;2024-01-16T01:12:32;211.45;;;24.33;;
54037;SDS011;39954;48.844;9.726;2024-01-16T01:13:37;143.63;;;19.58;;
54037;SDS011;39954;48.844;9.726;2024-01-16T01:14:40;155.52;;;18.58;;
54037;SDS011;39954;48.844;9.726;2024-01-16T01:15:45;333.10;;;31.75;;
54037;SDS011;39954;48.844;9.726;2024-01-16T01:16:47;223.70;;;24.70;;
54037;SDS011;39954;48.844;9.726;2024-01-16T01:17:52;251.48;;;26.02;;
54037;SDS011;39954;48.844;9.726;2024-01-16T01:18:58;204.85;;;23.17;;
54037;SDS011;39954;48.844;9.726;2024-01-16T01:20:05;740.42;;;61.00;;
54037;SDS011;39954;48.844;9.726;2024-01-16T01:21:10;288.33;;;28.15;;
54037;SDS011;39954;48.844;9.726;2024-01-16T01:22:15;326.63;;;31.92;;
54037;SDS011;39954;48.844;9.726;2024-01-16T01:23:17;318.58;;;32.30;;
54037;SDS011;39954;48.844;9.726;2024-01-16T01:24:22;793.05;;;67.28;;
54037;SDS011;39954;48.844;9.726;2024-01-16T01:25:24;1060.45;;;88.50;;
54037;SDS011;39954;48.844;9.726;2024-01-16T01:26:30;1326.25;;;116.53;;
54037;SDS011;39954;48.844;9.726;2024-01-16T01:27:32;1293.72;;;112.55;;
54037;SDS011;39954;48.844;9.726;2024-01-16T01:28:38;1302.07;;;114.50;;
54037;SDS011;39954;48.844;9.726;2024-01-16T01:29:41;1305.22;;;116.05;;
54037;SDS011;39954;48.844;9.726;2024-01-16T01:30:47;1319.22;;;113.63;;
54037;SDS011;39954;48.844;9.726;2024-01-16T01:31:49;1317.00;;;112.68;;
54037;SDS011;39954;48.844;9.726;2024-01-16T01:32:54;1329.15;;;112.85;;
54037;SDS011;39954;48.844;9.726;2024-01-16T01:34:00;1322.47;;;109.63;;
54037;SDS011;39954;48.844;9.726;2024-01-16T01:35:06;1328.85;;;108.40;;
54037;SDS011;39954;48.844;9.726;2024-01-16T01:36:09;1300.40;;;106.05;;
54037;SDS011;39954;48.844;9.726;2024-01-16T01:37:14;1274.38;;;104.32;;
54037;SDS011;39954;48.844;9.726;2024-01-16T01:38:17;747.42;;;57.33;;
54037;SDS011;39954;48.844;9.726;2024-01-16T01:39:22;695.45;;;52.45;;
54037;SDS011;39954;48.844;9.726;2024-01-16T01:40:24;702.65;;;52.83;;
54037;SDS011;39954;48.844;9.726;2024-01-16T01:41:29;699.15;;;53.30;;
54037;SDS011;39954;48.844;9.726;2024-01-16T01:42:31;710.58;;;53.72;;
54037;SDS011;39954;48.844;9.726;2024-01-16T01:43:38;747.05;;;57.30;;
54037;SDS011;39954;48.844;9.726;2024-01-16T01:44:41;738.03;;;56.10;;
54037;SDS011;39954;48.844;9.726;2024-01-16T01:45:47;731.92;;;57.08;;
54037;SDS011;39954;48.844;9.726;2024-01-16T01:46:58;762.90;;;60.55;;
54037;SDS011;39954;48.844;9.726;2024-01-16T01:48:04;770.40;;;59.80;;
54037;SDS011;39954;48.844;9.726;2024-01-16T01:49:11;743.22;;;56.17;;
54037;SDS011;39954;48.844;9.726;2024-01-16T01:50:19;703.25;;;52.40;;
54037;SDS011;39954;48.844;9.726;2024-01-16T01:51:21;805.45;;;62.10;;
54037;SDS011;39954;48.844;9.726;2024-01-16T01:52:27;686.08;;;52.05;;
54037;SDS011;39954;48.844;9.726;2024-01-16T01:53:30;651.45;;;48.50;;
54037;SDS011;39954;48.844;9.726;2024-01-16T01:54:35;740.80;;;57.20;;
54037;SDS011;39954;48.844;9.726;2024-01-16T01:55:41;767.17;;;59.33;;
54037;SDS011;39954;48.844;9.726;2024-01-16T01:56:44;237.50;;;23.92;;
54037;SDS011;39954;48.844;9.726;2024-01-16T01:57:50;245.10;;;25.88;;
54037;SDS011;39954;48.844;9.726;2024-01-16T01:58:55;191.32;;;21.10;;
54037;SDS011;39954;48.844;9.726;2024-01-16T02:00:00;248.45;;;25.95;;
54037;SDS011;39954;48.844;9.726;2024-01-16T02:01:06;228.57;;;23.58;;
54037;SDS011;39954;48.844;9.726;2024-01-16T02:02:09;185.75;;;21.33;;
54037;SDS011;39954;48.844;9.726;2024-01-16T02:03:16;249.02;;;25.45;;
54037;SDS011;39954;48.844;9.726;2024-01-16T02:04:21;167.70;;;19.77;;
54037;SDS011;39954;48.844;9.726;2024-01-16T02:05:27;127.28;;;16.95;;
54037;SDS011;39954;48.844;9.726;2024-01-16T02:06:31;404.10;;;36.35;;
54037;SDS011;39954;48.844;9.726;2024-01-16T02:07:36;153.02;;;19.92;;
54037;SDS011;39954;48.844;9.726;2024-01-16T02:08:39;190.10;;;21.75;;
54037;SDS011;39954;48.844;9.726;2024-01-16T02:09:44;141.20;;;16.23;;
54037;SDS011;39954;48.844;9.726;2024-01-16T02:10:46;222.57;;;22.02;;
54037;SDS011;39954;48.844;9.726;2024-01-16T02:11:53;149.40;;;16.25;;
54037;SDS011;39954;48.844;9.726;2024-01-16T02:12:57;167.30;;;17.98;;
54037;SDS011;39954;48.844;9.726;2024-01-16T02:14:02;269.77;;;26.00;;
54037;SDS011;39954;48.844;9.726;2024-01-16T02:15:05;210.30;;;21.52;;
54037;SDS011;39954;48.844;9.726;2024-01-16T02:16:19;189.27;;;18.77;;
54037;SDS011;39954;48.844;9.726;2024-01-16T02:17:22;177.05;;;18.42;;
54037;SDS011;39954;48.844;9.726;2024-01-16T02:18:27;173.68;;;17.60;;
54037;SDS011;39954;48.844;9.726;2024-01-16T02:19:32;146.90;;;15.98;;
54037;SDS011;39954;48.844;9.726;2024-01-16T02:20:37;189.40;;;19.17;;
54037;SDS011;39954;48.844;9.726;2024-01-16T02:21:41;171.60;;;16.70;;
54037;SDS011;39954;48.844;9.726;2024-01-16T02:22:51;229.13;;;20.52;;
54037;SDS011;39954;48.844;9.726;2024-01-16T02:24:00;189.43;;;18.10;;
54037;SDS011;39954;48.844;9.726;2024-01-16T02:25:05;190.73;;;20.10;;
54037;SDS011;39954;48.844;9.726;2024-01-16T02:26:08;231.20;;;22.65;;
54037;SDS011;39954;48.844;9.726;2024-01-16T02:27:14;197.70;;;20.40;;
54037;SDS011;39954;48.844;9.726;2024-01-16T02:28:16;132.07;;;14.23;;
54037;SDS011;39954;48.844;9.726;2024-01-16T02:29:21;153.23;;;15.25;;
54037;SDS011;39954;48.844;9.726;2024-01-16T02:30:24;159.32;;;16.40;;
54037;SDS011;39954;48.844;9.726;2024-01-16T02:31:29;157.88;;;15.80;;
54037;SDS011;39954;48.844;9.726;2024-01-16T02:32:31;122.43;;;12.88;;
54037;SDS011;39954;48.844;9.726;2024-01-16T02:33:36;183.95;;;16.50;;
54037;SDS011;39954;48.844;9.726;2024-01-16T02:34:39;168.40;;;15.23;;
54037;SDS011;39954;48.844;9.726;2024-01-16T02:35:42;110.60;;;12.25;;
54037;SDS011;39954;48.844;9.726;2024-01-16T02:36:47;230.70;;;19.80;;
54037;SDS011;39954;48.844;9.726;2024-01-16T02:37:49;256.80;;;21.48;;
54037;SDS011;39954;48.844;9.726;2024-01-16T02:38:54;153.32;;;14.38;;
54037;SDS011;39954;48.844;9.726;2024-01-16T02:39:59;213.10;;;18.45;;
54037;SDS011;39954;48.844;9.726;2024-01-16T02:41:07;267.40;;;23.83;;
54037;SDS011;39954;48.844;9.726;2024-01-16T02:42:10;215.90;;;21.38;;
54037;SDS011;39954;48.844;9.726;2024-01-16T02:43:14;273.02;;;24.27;;
54037;SDS011;39954;48.844;9.726;2024-01-16T02:44:17;115.70;;;14.85;;
54037;SDS011;39954;48.844;9.726;2024-01-16T02:45:22;160.25;;;17.67;;
54037;SDS011;39954;48.844;9.726;2024-01-16T02:46:24;153.25;;;17.30;;
54037;SDS011;39954;48.844;9.726;2024-01-16T02:47:29;79.45;;;12.35;;
54037;SDS011;39954;48.844;9.726;2024-01-16T02:48:31;120.00;;;14.73;;
54037;SDS011;39954;48.844;9.726;2024-01-16T02:49:33;116.38;;;13.98;;
54037;SDS011;39954;48.844;9.726;2024-01-16T02:50:39;129.52;;;14.98;;
54037;SDS011;39954;48.844;9.726;2024-01-16T02:51:41;183.13;;;18.10;;
54037;SDS011;39954;48.844;9.726;2024-01-16T02:52:45;115.50;;;14.15;;
54037;SDS011;39954;48.844;9.726;2024-01-16T02:53:48;135.93;;;15.70;;
54037;SDS011;39954;48.844;9.726;2024-01-16T02:54:53;160.35;;;16.55;;
54037;SDS011;39954;48.844;9.726;2024-01-16T02:55:58;140.35;;;14.65;;
54037;SDS011;39954;48.844;9.726;2024-01-16T02:57:03;193.50;;;17.77;;
54037;SDS011;39954;48.844;9.726;2024-01-16T02:58:05;164.43;;;16.67;;
54037;SDS011;39954;48.844;9.726;2024-01-16T02:59:10;154.25;;;15.90;;
54037;SDS011;39954;48.844;9.726;2024-01-16T03:00:13;204.27;;;18.90;;
54037;SDS011;39954;48.844;9.726;2024-01-16T03:01:19;137.15;;;16.48;;
54037;SDS011;39954;48.844;9.726;2024-01-16T03:02:21;176.23;;;20.98;;
54037;SDS011;39954;48.844;9.726;2024-01-16T03:03:26;122.10;;;18.77;;
54037;SDS011;39954;48.844;9.726;2024-01-16T03:04:28;178.80;;;18.05;;
54037;SDS011;39954;48.844;9.726;2024-01-16T03:05:33;201.00;;;18.30;;
54037;SDS011;39954;48.844;9.726;2024-01-16T03:06:36;162.88;;;17.35;;
54037;SDS011;39954;48.844;9.726;2024-01-16T03:07:41;164.02;;;21.73;;
54037;SDS011;39954;48.844;9.726;2024-01-16T03:08:43;212.40;;;24.58;;
54037;SDS011;39954;48.844;9.726;2024-01-16T03:09:45;224.32;;;26.02;;
54037;SDS011;39954;48.844;9.726;2024-01-16T03:10:50;179.13;;;26.23;;
54037;SDS011;39954;48.844;9.726;2024-01-16T03:11:55;210.45;;;29.85;;
54037;SDS011;39954;48.844;9.726;2024-01-16T03:13:00;249.95;;;36.67;;
54037;SDS011;39954;48.844;9.726;2024-01-16T03:14:02;188.77;;;27.17;;
54037;SDS011;39954;48.844;9.726;2024-01-16T03:15:05;187.85;;;14.45;;
54037;SDS011;39954;48.844;9.726;2024-01-16T03:16:11;206.27;;;15.18;;
54037;SDS011;39954;48.844;9.726;2024-01-16T03:17:13;245.88;;;17.83;;
54037;SDS011;39954;48.844;9.726;2024-01-16T03:18:18;203.20;;;16.23;;
54037;SDS011;39954;48.844;9.726;2024-01-16T03:19:20;164.48;;;12.77;;
54037;SDS011;39954;48.844;9.726;2024-01-16T03:20:25;144.23;;;11.80;;
54037;SDS011;39954;48.844;9.726;2024-01-16T03:21:28;162.63;;;12.68;;
54037;SDS011;39954;48.844;9.726;2024-01-16T03:22:33;172.88;;;13.25;;
54037;SDS011;39954;48.844;9.726;2024-01-16T03:23:35;159.40;;;12.32;;
54037;SDS011;39954;48.844;9.726;2024-01-16T03:24:40;171.10;;;13.18;;
54037;SDS011;39954;48.844;9.726;2024-01-16T03:25:42;156.40;;;13.75;;
54037;SDS011;39954;48.844;9.726;2024-01-16T03:26:47;181.52;;;14.07;;
54037;SDS011;39954;48.844;9.726;2024-01-16T03:27:52;161.90;;;13.43;;
54037;SDS011;39954;48.844;9.726;2024-01-16T03:28:57;232.00;;;16.73;;
54037;SDS011;39954;48.844;9.726;2024-01-16T03:30:00;167.05;;;13.30;;
54037;SDS011;39954;48.844;9.726;2024-01-16T03:31:06;140.10;;;12.43;;
54037;SDS011;39954;48.844;9.726;2024-01-16T03:32:09;206.90;;;15.63;;
54037;SDS011;39954;48.844;9.726;2024-01-16T03:33:14;176.52;;;13.93;;
54037;SDS011;39954;48.844;9.726;2024-01-16T03:34:16;173.63;;;13.98;;
54037;SDS011;39954;48.844;9.726;2024-01-16T03:35:21;153.27;;;12.23;;
54037;SDS011;39954;48.844;9.726;2024-01-16T03:36:23;129.90;;;11.25;;
54037;SDS011;39954;48.844;9.726;2024-01-16T03:37:28;123.80;;;11.02;;
54037;SDS011;39954;48.844;9.726;2024-01-16T03:38:30;94.97;;;9.85;;
54037;SDS011;39954;48.844;9.726;2024-01-16T03:39:32;194.90;;;15.27;;
54037;SDS011;39954;48.844;9.726;2024-01-16T03:40:37;162.00;;;12.57;;
54037;SDS011;39954;48.844;9.726;2024-01-16T03:41:39;119.50;;;11.32;;
54037;SDS011;39954;48.844;9.726;2024-01-16T03:42:42;148.82;;;12.60;;
54037;SDS011;39954;48.844;9.726;2024-01-16T03:43:49;109.97;;;10.23;;
54037;SDS011;39954;48.844;9.726;2024-01-16T03:44:51;103.20;;;10.07;;
54037;SDS011;39954;48.844;9.726;2024-01-16T03:45:58;128.10;;;11.60;;
54037;SDS011;39954;48.844;9.726;2024-01-16T03:47:00;105.47;;;9.98;;
54037;SDS011;39954;48.844;9.726;2024-01-16T03:48:05;127.22;;;11.57;;
54037;SDS011;39954;48.844;9.726;2024-01-16T03:49:08;199.32;;;15.10;;
54037;SDS011;39954;48.844;9.726;2024-01-16T03:50:13;151.35;;;12.57;;
54037;SDS011;39954;48.844;9.726;2024-01-16T03:51:15;147.05;;;12.70;;
54037;SDS011;39954;48.844;9.726;2024-01-16T03:52:19;185.13;;;14.77;;
54037;SDS011;39954;48.844;9.726;2024-01-16T03:53:24;110.30;;;10.32;;
54037;SDS011;39954;48.844;9.726;2024-01-16T03:54:29;125.38;;;11.02;;
54037;SDS011;39954;48.844;9.726;2024-01-16T03:55:34;206.77;;;15.90;;
54037;SDS011;39954;48.844;9.726;2024-01-16T03:56:36;130.85;;;11.70;;
54037;SDS011;39954;48.844;9.726;2024-01-16T03:57:41;113.50;;;11.50;;
54037;SDS011;39954;48.844;9.726;2024-01-16T03:58:44;176.40;;;14.77;;
54037;SDS011;39954;48.844;9.726;2024-01-16T03:59:51;127.57;;;11.77;;
54037;SDS011;39954;48.844;9.726;2024-01-16T04:00:53;127.55;;;11.77;;
54037;SDS011;39954;48.844;9.726;2024-01-16T04:01:56;183.32;;;14.40;;
54037;SDS011;39954;48.844;9.726;2024-01-16T04:03:01;129.48;;;11.27;;
54037;SDS011;39954;48.844;9.726;2024-01-16T04:04:03;148.05;;;12.48;;
54037;SDS011;39954;48.844;9.726;2024-01-16T04:05:09;184.85;;;14.50;;
54037;SDS011;39954;48.844;9.726;2024-01-16T04:06:16;204.90;;;15.63;;
54037;SDS011;39954;48.844;9.726;2024-01-16T04:07:22;125.05;;;11.75;;
54037;SDS011;39954;48.844;9.726;2024-01-16T04:08:25;179.45;;;14.52;;
54037;SDS011;39954;48.844;9.726;2024-01-16T04:09:30;117.97;;;10.95;;
54037;SDS011;39954;48.844;9.726;2024-01-16T04:10:32;100.72;;;10.73;;
54037;SDS011;39954;48.844;9.726;2024-01-16T04:11:38;119.03;;;11.10;;
54037;SDS011;39954;48.844;9.726;2024-01-16T04:12:40;151.73;;;13.13;;
54037;SDS011;39954;48.844;9.726;2024-01-16T04:13:45;120.85;;;10.70;;
54037;SDS011;39954;48.844;9.726;2024-01-16T04:14:47;174.82;;;13.68;;
54037;SDS011;39954;48.844;9.726;2024-01-16T04:15:55;115.82;;;10.60;;
54037;SDS011;39954;48.844;9.726;2024-01-16T04:16:57;112.45;;;10.73;;
54037;SDS011;39954;48.844;9.726;2024-01-16T04:18:02;181.02;;;15.07;;
54037;SDS011;39954;48.844;9.726;2024-01-16T04:19:05;127.72;;;11.73;;
54037;SDS011;39954;48.844;9.726;2024-01-16T04:20:11;181.48;;;13.90;;
54037;SDS011;39954;48.844;9.726;2024-01-16T04:21:14;209.02;;;15.77;;
54037;SDS011;39954;48.844;9.726;2024-01-16T04:22:21;182.13;;;14.75;;
54037;SDS011;39954;48.844;9.726;2024-01-16T04:23:23;207.60;;;16.30;;
54037;SDS011;39954;48.844;9.726;2024-01-16T04:24:25;239.80;;;17.23;;
54037;SDS011;39954;48.844;9.726;2024-01-16T04:25:30;145.05;;;12.23;;
54037;SDS011;39954;48.844;9.726;2024-01-16T04:26:35;217.93;;;15.40;;
54037;SDS011;39954;48.844;9.726;2024-01-16T04:27:40;229.93;;;16.25;;
54037;SDS011;39954;48.844;9.726;2024-01-16T04:28:42;192.02;;;14.23;;
54037;SDS011;39954;48.844;9.726;2024-01-16T04:29:47;210.13;;;15.85;;
54037;SDS011;39954;48.844;9.726;2024-01-16T04:30:50;168.63;;;13.32;;
54037;SDS011;39954;48.844;9.726;2024-01-16T04:31:58;159.40;;;13.27;;
54037;SDS011;39954;48.844;9.726;2024-01-16T04:33:00;144.23;;;12.35;;
54037;SDS011;39954;48.844;9.726;2024-01-16T04:34:02;185.68;;;14.55;;
54037;SDS011;39954;48.844;9.726;2024-01-16T04:35:08;152.85;;;13.25;;
54037;SDS011;39954;48.844;9.726;2024-01-16T04:36:10;207.15;;;15.30;;
54037;SDS011;39954;48.844;9.726;2024-01-16T04:37:15;243.23;;;17.30;;
54037;SDS011;39954;48.844;9.726;2024-01-16T04:38:17;209.77;;;16.35;;
54037;SDS011;39954;48.844;9.726;2024-01-16T04:39:19;203.00;;;15.20;;
54037;SDS011;39954;48.844;9.726;2024-01-16T04:40:25;235.10;;;18.33;;
54037;SDS011;39954;48.844;9.726;2024-01-16T04:41:27;164.05;;;14.48;;
54037;SDS011;39954;48.844;9.726;2024-01-16T04:42:30;150.23;;;13.30;;
54037;SDS011;39954;48.844;9.726;2024-01-16T04:43:34;189.73;;;14.90;;
54037;SDS011;39954;48.844;9.726;2024-01-16T04:44:37;153.55;;;14.20;;
54037;SDS011;39954;48.844;9.726;2024-01-16T04:45:42;205.00;;;16.42;;
54037;SDS011;39954;48.844;9.726;2024-01-16T04:46:44;181.23;;;14.77;;
54037;SDS011;39954;48.844;9.726;2024-01-16T04:47:51;203.93;;;15.82;;
54037;SDS011;39954;48.844;9.726;2024-01-16T04:48:54;149.90;;;13.40;;
54037;SDS011;39954;48.844;9.726;2024-01-16T04:49:59;105.78;;;11.18;;
54037;SDS011;39954;48.844;9.726;2024-01-16T04:51:01;92.93;;;10.77;;
54037;SDS011;39954;48.844;9.726;2024-01-16T04:52:06;129.02;;;12.73;;
54037;SDS011;39954;48.844;9.726;2024-01-16T04:53:08;92.60;;;10.52;;
54037;SDS011;39954;48.844;9.726;2024-01-16T04:54:13;134.05;;;12.45;;
54037;SDS011;39954;48.844;9.726;2024-01-16T04:55:15;231.32;;;18.50;;
54037;SDS011;39954;48.844;9.726;2024-01-16T04:56:20;153.02;;;14.05;;
54037;SDS011;39954;48.844;9.726;2024-01-16T04:57:22;137.60;;;12.85;;
54037;SDS011;39954;48.844;9.726;2024-01-16T04:58:27;188.75;;;16.02;;
54037;SDS011;39954;48.844;9.726;2024-01-16T04:59:29;73.90;;;9.60;;
54037;SDS011;39954;48.844;9.726;2024-01-16T05:00:36;138.65;;;13.63;;
54037;SDS011;39954;48.844;9.726;2024-01-16T05:01:38;155.63;;;15.52;;
54037;SDS011;39954;48.844;9.726;2024-01-16T05:02:43;117.88;;;12.02;;
54037;SDS011;39954;48.844;9.726;2024-01-16T05:03:48;127.88;;;12.65;;
54037;SDS011;39954;48.844;9.726;2024-01-16T05:04:53;135.52;;;14.68;;
54037;SDS011;39954;48.844;9.726;2024-01-16T05:05:55;132.55;;;17.10;;
54037;SDS011;39954;48.844;9.726;2024-01-16T05:07:00;155.77;;;23.25;;
54037;SDS011;39954;48.844;9.726;2024-01-16T05:08:03;185.43;;;30.02;;
54037;SDS011;39954;48.844;9.726;2024-01-16T05:09:08;291.45;;;56.92;;
54037;SDS011;39954;48.844;9.726;2024-01-16T05:10:11;271.15;;;42.50;;
54037;SDS011;39954;48.844;9.726;2024-01-16T05:11:17;259.17;;;37.33;;
54037;SDS011;39954;48.844;9.726;2024-01-16T05:12:20;255.05;;;31.80;;
54037;SDS011;39954;48.844;9.726;2024-01-16T05:13:24;208.85;;;24.60;;
54037;SDS011;39954;48.844;9.726;2024-01-16T05:14:27;213.10;;;25.95;;
54037;SDS011;39954;48.844;9.726;2024-01-16T05:15:31;123.88;;;15.65;;
54037;SDS011;39954;48.844;9.726;2024-01-16T05:16:34;172.68;;;17.98;;
54037;SDS011;39954;48.844;9.726;2024-01-16T05:17:38;151.45;;;14.63;;
54037;SDS011;39954;48.844;9.726;2024-01-16T05:18:41;126.50;;;13.23;;
54037;SDS011;39954;48.844;9.726;2024-01-16T05:19:51;149.20;;;13.32;;
54037;SDS011;39954;48.844;9.726;2024-01-16T05:20:53;147.38;;;15.27;;
54037;SDS011;39954;48.844;9.726;2024-01-16T05:22:01;123.45;;;13.00;;
54037;SDS011;39954;48.844;9.726;2024-01-16T05:23:03;116.35;;;10.90;;
54037;SDS011;39954;48.844;9.726;2024-01-16T05:24:08;115.72;;;11.90;;
54037;SDS011;39954;48.844;9.726;2024-01-16T05:25:10;105.75;;;11.02;;
54037;SDS011;39954;48.844;9.726;2024-01-16T05:26:15;193.23;;;16.40;;
54037;SDS011;39954;48.844;9.726;2024-01-16T05:27:17;168.88;;;14.55;;
54037;SDS011;39954;48.844;9.726;2024-01-16T05:28:22;181.45;;;15.85;;
54037;SDS011;39954;48.844;9.726;2024-01-16T05:29:24;225.43;;;18.33;;
54037;SDS011;39954;48.844;9.726;2024-01-16T05:30:29;173.48;;;15.35;;
54037;SDS011;39954;48.844;9.726;2024-01-16T05:31:32;161.70;;;15.32;;
54037;SDS011;39954;48.844;9.726;2024-01-16T05:32:37;139.13;;;13.52;;
54037;SDS011;39954;48.844;9.726;2024-01-16T05:33:41;123.38;;;12.63;;
54037;SDS011;39954;48.844;9.726;2024-01-16T05:34:46;150.35;;;14.02;;
54037;SDS011;39954;48.844;9.726;2024-01-16T05:35:51;280.20;;;22.45;;
54037;SDS011;39954;48.844;9.726;2024-01-16T05:36:56;212.13;;;17.08;;
54037;SDS011;39954;48.844;9.726;2024-01-16T05:37:58;195.38;;;16.55;;
54037;SDS011;39954;48.844;9.726;2024-01-16T05:39:03;286.80;;;22.45;;
54037;SDS011;39954;48.844;9.726;2024-01-16T05:40:06;152.27;;;13.80;;
54037;SDS011;39954;48.844;9.726;2024-01-16T05:41:13;182.70;;;15.60;;
54037;SDS011;39954;48.844;9.726;2024-01-16T05:42:15;318.27;;;23.70;;
54037;SDS011;39954;48.844;9.726;2024-01-16T05:43:20;262.00;;;21.58;;
54037;SDS011;39954;48.844;9.726;2024-01-16T05:44:22;282.92;;;23.13;;
54037;SDS011;39954;48.844;9.726;2024-01-16T05:45:24;290.48;;;24.23;;
54037;SDS011;39954;48.844;9.726;2024-01-16T05:46:31;266.17;;;21.20;;
54037;SDS011;39954;48.844;9.726;2024-01-16T05:47:33;241.18;;;19.55;;
54037;SDS011;39954;48.844;9.726;2024-01-16T05:48:38;202.63;;;16.75;;
54037;SDS011;39954;48.844;9.726;2024-01-16T05:49:40;210.48;;;17.38;;
54037;SDS011;39954;48.844;9.726;2024-01-16T05:50:46;296.45;;;22.40;;
54037;SDS011;39954;48.844;9.726;2024-01-16T05:51:51;261.02;;;19.67;;
54037;SDS011;39954;48.844;9.726;2024-01-16T05:52:56;248.48;;;18.85;;
54037;SDS011;39954;48.844;9.726;2024-01-16T05:53:58;558.95;;;41.55;;
54037;SDS011;39954;48.844;9.726;2024-01-16T05:55:03;223.25;;;17.25;;
54037;SDS011;39954;48.844;9.726;2024-01-16T05:56:06;218.40;;;17.88;;
54037;SDS011;39954;48.844;9.726;2024-01-16T05:57:12;312.27;;;23.50;;
54037;SDS011;39954;48.844;9.726;2024-01-16T05:58:14;187.60;;;15.75;;
54037;SDS011;39954;48.844;9.726;2024-01-16T05:59:19;186.75;;;16.20;;
54037;SDS011;39954;48.844;9.726;2024-01-16T06:00:21;312.85;;;25.73;;
54037;SDS011;39954;48.844;9.726;2024-01-16T06:01:26;209.05;;;18.23;;
54037;SDS011;39954;48.844;9.726;2024-01-16T06:02:29;218.05;;;17.98;;
54037;SDS011;39954;48.844;9.726;2024-01-16T06:03:34;253.27;;;21.88;;
54037;SDS011;39954;48.844;9.726;2024-01-16T06:04:36;147.98;;;13.90;;
54037;SDS011;39954;48.844;9.726;2024-01-16T06:05:41;93.68;;;10.98;;
54037;SDS011;39954;48.844;9.726;2024-01-16T06:06:43;138.45;;;13.32;;
54037;SDS011;39954;48.844;9.726;2024-01-16T06:07:52;201.00;;;17.20;;
54037;SDS011;39954;48.844;9.726;2024-01-16T06:08:54;129.35;;;12.52;;
54037;SDS011;39954;48.844;9.726;2024-01-16T06:10:01;174.05;;;15.20;;